Time;durP1;ratioP1;P1;durP2;ratioP2;P2;SDS_P1;SDS_P2;PMS_P1;PMS_P2;Temp;Humidity;BMP_temperature;BMP_pressure;BME280_temperature;BME280_humidity;BME280_pressure;Samples;Min_cycle;Max_cycle;Signal;HPM_P1;HPM_P2
2022/04/09 00:00:01;;;;;;;1.98;0.55;;;;;;;;;;7389016;19;20424;-78
2022/04/09 00:02:27;;;;;;;5.18;0.50;;;;;;;;;;7393165;19;20381;-78
2022/04/09 00:04:52;;;;;;;0.47;0.28;;;;;;;;;;7390673;19;20453;-78
2022/04/09 00:07:17;;;;;;;2.58;0.65;;;;;;;;;;7392339;19;20015;-78
2022/04/09 00:09:42;;;;;;;0.70;0.30;;;;;;;;;;7390829;19;20393;-77
2022/04/09 00:12:08;;;;;;;1.80;0.55;;;;;;;;;;7395086;19;20341;-78
2022/04/09 00:14:34;;;;;;;0.95;0.35;;;;;;;;;;7391243;19;20017;-78
2022/04/09 00:16:59;;;;;;;1.75;0.40;;;;;;;;;;7394155;19;20023;-77
2022/04/09 00:19:25;;;;;;;0.70;0.40;;;;;;;;;;7391637;19;20014;-78
2022/04/09 00:21:51;;;;;;;1.13;0.40;;;;;;;;;;7393615;19;20006;-78
2022/04/09 00:24:17;;;;;;;1.60;0.40;;;;;;;;;;7390571;19;20442;-77
2022/04/09 00:26:42;;;;;;;1.13;0.50;;;;;;;;;;7392391;19;20013;-78
2022/04/09 00:29:07;;;;;;;2.13;0.55;;;;;;;;;;7392453;19;20033;-78
2022/04/09 00:31:33;;;;;;;0.70;0.32;;;;;;;;;;7394193;19;20005;-77
2022/04/09 00:33:59;;;;;;;0.30;0.28;;;;;;;;;;7393409;19;20006;-78
2022/04/09 00:36:24;;;;;;;1.02;0.40;;;;;;;;;;7392073;19;19994;-78
2022/04/09 00:38:49;;;;;;;1.50;0.30;;;;;;;;;;7391005;19;20026;-78
2022/04/09 00:41:15;;;;;;;3.15;0.40;;;;;;;;;;7392384;19;20003;-79
2022/04/09 00:43:41;;;;;;;3.05;0.40;;;;;;;;;;7392713;19;20007;-78
2022/04/09 00:46:07;;;;;;;1.45;0.40;;;;;;;;;;7392368;19;20084;-78
2022/04/09 00:48:35;;;;;;;4.03;1.40;;;;;;;;;;7394123;19;20118;-81
2022/04/09 00:51:01;;;;;;;0.20;0.13;;;;;;;;;;7392687;19;20015;-79
2022/04/09 00:53:27;;;;;;;0.10;0.10;;;;;;;;;;7392975;19;20470;-79
2022/04/09 00:58:38;;;;;;;0.10;0.10;;;;;;;;;;7390487;19;20041;-82
2022/04/09 01:01:04;;;;;;;0.30;0.00;;;;;;;;;;7391659;19;20006;-82
2022/04/09 01:03:29;;;;;;;0.20;0.10;;;;;;;;;;7391399;19;20042;-80
2022/04/09 01:05:55;;;;;;;0.00;0.00;;;;;;;;;;7394008;19;20010;-80
2022/04/09 01:08:20;;;;;;;0.45;0.05;;;;;;;;;;7391659;19;20342;-82
2022/04/09 01:10:51;;;;;;;0.00;0.00;;;;;;;;;;7391089;19;20007;-82
2022/04/09 01:13:17;;;;;;;0.70;0.20;;;;;;;;;;7389726;19;20011;-82
2022/04/09 01:15:43;;;;;;;0.00;0.00;;;;;;;;;;7395464;19;20010;-83
2022/04/09 01:18:09;;;;;;;0.00;0.00;;;;;;;;;;7389861;19;20307;-83
2022/04/09 01:20:34;;;;;;;0.00;0.00;;;;;;;;;;7396170;19;20010;-82
2022/04/09 01:22:59;;;;;;;0.05;0.05;;;;;;;;;;7396552;19;19990;-82
2022/04/09 01:25:25;;;;;;;0.17;0.03;;;;;;;;;;7394317;19;20056;-84
2022/04/09 01:27:51;;;;;;;0.00;0.00;;;;;;;;;;7392352;19;20013;-83
2022/04/09 01:30:17;;;;;;;0.08;0.05;;;;;;;;;;7391134;19;20002;-82
2022/04/09 01:32:42;;;;;;;0.00;0.00;;;;;;;;;;7393980;19;20002;-82
2022/04/09 01:35:08;;;;;;;0.00;0.00;;;;;;;;;;7394550;19;20003;-82
2022/04/09 01:37:33;;;;;;;0.00;0.00;;;;;;;;;;7394747;19;20347;-84
2022/04/09 01:39:59;;;;;;;0.00;0.00;;;;;;;;;;7389640;19;20006;-84
2022/04/09 01:42:26;;;;;;;1.38;0.20;;;;;;;;;;7391860;19;19990;-83
2022/04/09 01:44:52;;;;;;;0.00;0.00;;;;;;;;;;7393093;19;20010;-83
2022/04/09 01:47:17;;;;;;;0.10;0.10;;;;;;;;;;7395565;19;20015;-84
2022/04/09 01:49:43;;;;;;;0.10;0.10;;;;;;;;;;7393634;19;20078;-84
2022/04/09 01:52:08;;;;;;;0.08;0.00;;;;;;;;;;7397632;19;20011;-84
2022/04/09 01:54:34;;;;;;;0.00;0.00;;;;;;;;;;7394052;19;20546;-84
2022/04/09 01:56:59;;;;;;;0.00;0.00;;;;;;;;;;7394325;19;19995;-83
2022/04/09 01:59:25;;;;;;;0.00;0.00;;;;;;;;;;7395504;19;20010;-84
2022/04/09 02:01:50;;;;;;;0.10;0.00;;;;;;;;;;7396353;19;20002;-84
2022/04/09 02:04:15;;;;;;;0.03;0.03;;;;;;;;;;7392230;19;20011;-84
2022/04/09 02:06:42;;;;;;;0.10;0.10;;;;;;;;;;7395328;19;20470;-84
2022/04/09 02:09:11;;;;;;;0.00;0.00;;;;;;;;;;7394088;19;20017;-87
2022/04/09 02:11:40;;;;;;;0.05;0.05;;;;;;;;;;7392061;19;20013;-84
2022/04/09 02:14:08;;;;;;;0.00;0.00;;;;;;;;;;7387783;19;20015;-85
2022/04/09 02:16:33;;;;;;;0.10;0.10;;;;;;;;;;7395886;19;19999;-84
2022/04/09 02:18:59;;;;;;;0.10;0.10;;;;;;;;;;7389986;19;20009;-85
2022/04/09 02:21:25;;;;;;;0.40;0.10;;;;;;;;;;7391514;19;20087;-84
2022/04/09 02:23:50;;;;;;;0.43;0.20;;;;;;;;;;7391122;19;20466;-85
2022/04/09 02:26:15;;;;;;;0.20;0.20;;;;;;;;;;7395290;19;20010;-85
2022/04/09 02:28:41;;;;;;;0.05;0.00;;;;;;;;;;7389936;19;19999;-82
2022/04/09 02:31:06;;;;;;;0.00;0.00;;;;;;;;;;7392004;19;20010;-87
2022/04/09 02:33:32;;;;;;;0.08;0.08;;;;;;;;;;7390180;19;20010;-85
2022/04/09 02:35:57;;;;;;;0.10;0.10;;;;;;;;;;7394257;19;20017;-85
2022/04/09 02:38:24;;;;;;;0.10;0.10;;;;;;;;;;7390763;19;20283;-85
2022/04/09 02:40:49;;;;;;;0.03;0.03;;;;;;;;;;7391651;19;20010;-85
2022/04/09 02:43:14;;;;;;;0.40;0.40;;;;;;;;;;7388092;19;20339;-85
2022/04/09 02:45:40;;;;;;;0.10;0.10;;;;;;;;;;7396665;19;20012;-84
2022/04/09 02:48:05;;;;;;;0.63;0.38;;;;;;;;;;7395595;19;20006;-84
2022/04/09 02:50:31;;;;;;;0.55;0.52;;;;;;;;;;7394321;19;20340;-86
2022/04/09 02:52:56;;;;;;;0.57;0.57;;;;;;;;;;7392546;19;20015;-84
2022/04/09 02:55:21;;;;;;;0.82;0.65;;;;;;;;;;7390443;19;20018;-84
2022/04/09 02:57:46;;;;;;;0.73;0.47;;;;;;;;;;7394496;19;19998;-86
2022/04/09 03:00:12;;;;;;;0.40;0.40;;;;;;;;;;7397202;19;20491;-86
2022/04/09 03:02:42;;;;;;;0.40;0.40;;;;;;;;;;7395672;19;20017;-84
2022/04/09 03:05:08;;;;;;;0.75;0.55;;;;;;;;;;7393394;19;20048;-85
2022/04/09 03:07:33;;;;;;;0.73;0.50;;;;;;;;;;7399121;19;20025;-85
2022/04/09 03:09:58;;;;;;;1.25;0.40;;;;;;;;;;7394352;19;20009;-86
2022/04/09 03:12:24;;;;;;;0.73;0.60;;;;;;;;;;7393197;19;20034;-85
2022/04/09 03:14:49;;;;;;;0.55;0.55;;;;;;;;;;7391907;19;20003;-86
2022/04/09 03:17:14;;;;;;;0.57;0.50;;;;;;;;;;7396120;19;20014;-85
2022/04/09 03:19:40;;;;;;;0.68;0.40;;;;;;;;;;7390913;19;20532;-84
2022/04/09 03:22:05;;;;;;;0.55;0.40;;;;;;;;;;7387047;19;20031;-84
2022/04/09 03:24:30;;;;;;;0.38;0.38;;;;;;;;;;7390142;19;20024;-83
2022/04/09 03:26:55;;;;;;;0.45;0.45;;;;;;;;;;7398176;19;20007;-84
2022/04/09 03:29:21;;;;;;;0.55;0.52;;;;;;;;;;7398617;19;20076;-83
2022/04/09 03:31:46;;;;;;;0.90;0.52;;;;;;;;;;7396244;19;20031;-83
2022/04/09 03:34:11;;;;;;;0.70;0.60;;;;;;;;;;7395265;19;20451;-83
2022/04/09 03:36:38;;;;;;;2.03;1.20;;;;;;;;;;7396254;19;20038;-84
2022/04/09 03:39:04;;;;;;;0.88;0.80;;;;;;;;;;7394636;19;20010;-84
2022/04/09 03:41:29;;;;;;;0.80;0.77;;;;;;;;;;7397298;19;20002;-83
2022/04/09 03:43:55;;;;;;;0.50;0.50;;;;;;;;;;7408275;19;20147;-83
2022/04/09 03:46:20;;;;;;;1.10;0.70;;;;;;;;;;7412752;19;20002;-83
2022/04/09 03:48:45;;;;;;;1.08;0.70;;;;;;;;;;7397328;19;19998;-82
2022/04/09 03:51:12;;;;;;;0.43;0.43;;;;;;;;;;7391580;19;20009;-83
2022/04/09 03:53:37;;;;;;;0.98;0.70;;;;;;;;;;7394657;19;19995;-83
2022/04/09 03:56:04;;;;;;;0.60;0.60;;;;;;;;;;7395543;19;20006;-83
2022/04/09 03:58:29;;;;;;;0.57;0.57;;;;;;;;;;7392201;19;20443;-83
2022/04/09 04:00:54;;;;;;;0.73;0.73;;;;;;;;;;7394859;19;19991;-83
2022/04/09 04:03:20;;;;;;;0.45;0.45;;;;;;;;;;7395591;19;20011;-83
2022/04/09 04:05:46;;;;;;;0.80;0.47;;;;;;;;;;7405376;19;20354;-82
2022/04/09 04:12:18;;;;;;;0.70;0.65;;;;;;;;;;7399212;19;20014;-82
2022/04/09 04:16:04;;;;;;;0.55;0.50;;;;;;;;;;7397483;19;20019;-83
2022/04/09 04:19:27;;;;;;;0.57;0.50;;;;;;;;;;7397206;19;20018;-83
2022/04/09 04:26:34;;;;;;;0.75;0.75;;;;;;;;;;7400411;19;20019;-82
2022/04/09 04:29:54;;;;;;;0.70;0.70;;;;;;;;;;7402146;19;20032;-83
2022/04/09 04:35:22;;;;;;;0.70;0.70;;;;;;;;;;7404992;19;19913;-83
2022/04/09 04:37:47;;;;;;;0.70;0.60;;;;;;;;;;7407435;19;20007;-82
2022/04/09 04:40:17;;;;;;;1.13;1.02;;;;;;;;;;7399758;19;20008;-83
2022/04/09 04:42:44;;;;;;;0.70;0.63;;;;;;;;;;7407179;19;20178;-83
2022/04/09 04:54:49;;;;;;;1.83;1.35;;;;;;;;;;7413824;19;19939;-81
2022/04/09 05:02:32;;;;;;;1.92;1.13;;;;;;;;;;7393933;19;20032;-82
2022/04/09 05:04:58;;;;;;;2.95;1.90;;;;;;;;;;7386057;19;20023;-81
2022/04/09 05:07:47;;;;;;;2.60;1.50;;;;;;;;;;7394048;19;20592;-80
2022/04/09 05:10:50;;;;;;;1.92;1.48;;;;;;;;;;7389701;19;20053;-80
2022/04/09 05:13:16;;;;;;;1.55;1.30;;;;;;;;;;7391254;19;20005;-80
2022/04/09 05:19:04;;;;;;;1.05;0.90;;;;;;;;;;7395491;19;20019;-83
2022/04/09 05:22:09;;;;;;;1.67;1.10;;;;;;;;;;7396553;19;20144;-79
2022/04/09 05:24:47;;;;;;;1.92;1.55;;;;;;;;;;7393488;19;20346;-81
2022/04/09 05:45:16;;;;;;;3.40;2.17;;;;;;;;;;7384261;19;20011;-81
2022/04/09 05:55:08;;;;;;;2.92;2.08;;;;;;;;;;7388008;19;20006;-79
2022/04/09 05:57:59;;;;;;;2.95;1.90;;;;;;;;;;7387676;19;20392;-81
2022/04/09 06:00:25;;;;;;;7.03;2.80;;;;;;;;;;7384958;19;20011;-78
2022/04/09 06:02:50;;;;;;;7.05;2.67;;;;;;;;;;7388641;19;20039;-79
2022/04/09 06:05:18;;;;;;;3.95;2.65;;;;;;;;;;7387728;19;20007;-79
2022/04/09 06:07:43;;;;;;;2.50;2.15;;;;;;;;;;7391513;19;20015;-79
2022/04/09 06:10:10;;;;;;;3.47;2.42;;;;;;;;;;7392311;19;20058;-79
2022/04/09 06:12:36;;;;;;;4.65;1.85;;;;;;;;;;7392970;19;20010;-79
2022/04/09 06:15:06;;;;;;;2.92;2.30;;;;;;;;;;7388075;19;20020;-80
2022/04/09 06:17:33;;;;;;;4.05;2.17;;;;;;;;;;7393222;19;20094;-79
2022/04/09 06:19:58;;;;;;;2.55;1.85;;;;;;;;;;7413755;19;20017;-78
2022/04/09 06:22:27;;;;;;;4.85;3.08;;;;;;;;;;7415729;19;20466;-78
2022/04/09 06:24:53;;;;;;;2.53;1.88;;;;;;;;;;7415495;19;20021;-79
2022/04/09 06:27:19;;;;;;;3.80;2.10;;;;;;;;;;7415885;19;20049;-78
2022/04/09 06:29:44;;;;;;;2.88;2.38;;;;;;;;;;7415890;19;20094;-78
2022/04/09 06:32:16;;;;;;;2.80;2.33;;;;;;;;;;7419554;19;20005;-77
2022/04/09 06:34:41;;;;;;;3.92;2.50;;;;;;;;;;7393558;19;20461;-79
2022/04/09 06:37:06;;;;;;;3.78;2.80;;;;;;;;;;7391597;19;19999;-80
2022/04/09 06:39:32;;;;;;;6.32;2.75;;;;;;;;;;7393814;19;20039;-80
2022/04/09 06:41:58;;;;;;;4.25;2.45;;;;;;;;;;7396084;19;20009;-80
2022/04/09 06:44:25;;;;;;;3.65;2.60;;;;;;;;;;7393030;19;20014;-80
2022/04/09 06:46:50;;;;;;;3.28;2.50;;;;;;;;;;7390849;19;20093;-80
2022/04/09 06:49:15;;;;;;;4.57;3.40;;;;;;;;;;7394092;19;19998;-80
2022/04/09 06:51:42;;;;;;;5.00;2.47;;;;;;;;;;7392154;19;20022;-81
2022/04/09 06:54:09;;;;;;;6.45;3.10;;;;;;;;;;7391696;19;20007;-80
2022/04/09 06:56:36;;;;;;;5.22;2.58;;;;;;;;;;7392045;19;20020;-80
2022/04/09 06:59:02;;;;;;;3.90;2.22;;;;;;;;;;7389047;19;20123;-80
2022/04/09 07:01:28;;;;;;;4.00;2.53;;;;;;;;;;7397891;19;20267;-80
2022/04/09 07:06:31;;;;;;;5.43;3.20;;;;;;;;;;7396060;19;20014;-80
2022/04/09 07:08:59;;;;;;;5.00;2.70;;;;;;;;;;7396904;19;20751;-80
2022/04/09 07:12:15;;;;;;;7.85;2.75;;;;;;;;;;7400703;19;20002;-79
2022/04/09 07:14:50;;;;;;;5.82;3.08;;;;;;;;;;7394631;19;20078;-79
2022/04/09 07:17:29;;;;;;;6.20;2.92;;;;;;;;;;7395950;19;20035;-80
2022/04/09 07:20:03;;;;;;;4.60;3.28;;;;;;;;;;7400851;19;20073;-79
2022/04/09 07:22:28;;;;;;;4.90;2.92;;;;;;;;;;7398438;19;20010;-79
2022/04/09 07:24:55;;;;;;;5.43;3.17;;;;;;;;;;7396305;19;20010;-81
2022/04/09 07:27:21;;;;;;;5.85;3.50;;;;;;;;;;7394092;19;20010;-80
2022/04/09 07:29:47;;;;;;;3.78;2.97;;;;;;;;;;7395403;19;20090;-81
2022/04/09 07:32:13;;;;;;;5.40;3.40;;;;;;;;;;7394271;19;20011;-81
2022/04/09 07:37:22;;;;;;;8.32;3.88;;;;;;;;;;7387048;19;20007;-82
2022/04/09 07:39:47;;;;;;;7.20;3.63;;;;;;;;;;7394607;19;20069;-81
2022/04/09 07:42:33;;;;;;;4.90;3.17;;;;;;;;;;7392953;19;20494;-81
2022/04/09 07:45:35;;;;;;;;;;;;;;;;;;7393901;19;20010;-78
2022/04/09 07:51:46;;;;;;;6.25;3.17;;;;;;;;;;7393601;19;20020;-81
2022/04/09 07:54:13;;;;;;;4.78;3.22;;;;;;;;;;7388387;19;20010;-78
2022/04/09 07:57:29;;;;;;;5.22;3.25;;;;;;;;;;7390674;19;19999;-78
2022/04/09 08:03:19;;;;;;;5.32;3.15;;;;;;;;;;7388263;19;20129;-77
2022/04/09 08:06:39;;;;;;;;;;;;;;;;;;;;;
2022/04/09 08:29:40;;;;;;;4.05;2.42;;;;;;;;;;7383583;19;19998;-78
2022/04/09 08:32:18;;;;;;;;;;;;;;;;;;;;;
2022/04/09 08:34:55;;;;;;;4.88;2.00;;;;;;;;;;7384036;19;19999;-77
2022/04/09 08:40:34;;;;;;;3.22;1.90;;;;;;;;;;7382262;19;20010;-77
2022/04/09 08:43:00;;;;;;;4.45;1.90;;;;;;;;;;7385951;19;20022;-78
2022/04/09 08:49:20;;;;;;;3.55;1.88;;;;;;;;;;7385197;19;20444;-77
2022/04/09 08:51:46;;;;;;;5.80;2.20;;;;;;;;;;7384178;19;20010;-78
2022/04/09 08:54:15;;;;;;;4.20;1.95;;;;;;;;;;7386895;19;20060;-78
2022/04/09 08:56:40;;;;;;;4.15;2.05;;;;;;;;;;7389962;19;20431;-78
2022/04/09 09:00:12;;;;;;;;;;;;;;;;;;;;;
2022/04/09 09:13:43;;;;;;;2.03;1.20;;;;;;;;;;7383772;19;21280;-79
2022/04/09 09:30:51;;;;;;;3.67;1.45;;;;;;;;;;7380072;19;20078;-77
2022/04/09 09:37:19;;;;;;;3.33;1.20;;;;;;;;;;7384097;19;20025;-78
2022/04/09 09:43:25;;;;;;;2.20;1.40;;;;;;;;;;7392732;19;20452;-80
2022/04/09 09:56:10;;;;;;;2.97;1.00;;;;;;;;;;7386126;19;20017;-79
2022/04/09 10:01:59;;;;;;;3.10;0.98;;;;;;;;;;7391089;19;19998;-78
2022/04/09 10:12:10;;;;;;;3.60;1.20;;;;;;;;;;7387509;19;19998;-80
2022/04/09 10:14:43;;;;;;;5.25;1.50;;;;;;;;;;7380994;19;20080;-80
2022/04/09 11:46:34;;;;;;;;;;;;;;;;;;;;;
2022/04/09 11:49:20;;;;;;;4.60;1.10;;;;;;;;;;7389732;19;20025;-80
2022/04/09 11:52:11;;;;;;;;;;;;;;;;;;7400515;19;20014;-80
2022/04/09 11:55:21;;;;;;;2.97;1.52;;;;;;;;;;7404402;19;19911;-79
2022/04/09 12:08:36;;;;;;;7.18;1.00;;;;;;;;;;7354227;19;20019;-82
2022/04/09 12:11:41;;;;;;;4.03;1.50;;;;;;;;;;7391252;19;20673;-79
2022/04/09 12:23:31;;;;;;;8.00;2.13;;;;;;;;;;7401459;19;20008;-80
2022/04/09 12:26:38;;;;;;;4.03;0.90;;;;;;;;;;7395684;19;20014;-79
2022/04/09 12:29:05;;;;;;;2.35;1.08;;;;;;;;;;7397381;19;20023;-79
2022/04/09 12:31:32;;;;;;;4.75;1.52;;;;;;;;;;7402276;19;20015;-83
2022/04/09 13:22:43;;;;;;;2.70;0.80;;;;;;;;;;7392543;19;20083;-82
2022/04/09 13:28:49;;;;;;;3.28;1.10;;;;;;;;;;7397164;19;20031;-82
2022/04/09 13:39:17;;;;;;;;;;;;;;;;;;;;;
2022/04/09 13:42:25;;;;;;;1.90;0.77;;;;;;;;;;7391582;19;20382;-81
2022/04/09 13:49:00;;;;;;;1.40;0.90;;;;;;;;;;7392787;19;20004;-80
2022/04/09 13:56:04;;;;;;;1.65;0.68;;;;;;;;;;7393408;19;20519;-82
2022/04/09 13:58:15;;;;;;;6.40;1.50;;;;;;;;;;7390800;19;20036;-80
2022/04/09 14:07:19;;;;;;;2.10;0.90;;;;;;;;;;7382314;19;20030;-81
2022/04/09 14:16:06;;;;;;;2.72;1.23;;;;;;;;;;7385552;19;20430;-81
2022/04/09 14:18:52;;;;;;;2.17;0.77;;;;;;;;;;7333722;19;20009;-80
2022/04/09 14:21:30;;;;;;;3.75;0.90;;;;;;;;;;7390528;19;20015;-80
2022/04/09 14:31:49;;;;;;;3.47;0.80;;;;;;;;;;7394493;19;20356;-80
2022/04/09 14:38:23;;;;;;;2.35;1.05;;;;;;;;;;7390162;19;20810;-81
2022/04/09 14:48:33;;;;;;;1.67;0.60;;;;;;;;;;7385212;19;20044;-82
2022/04/09 14:54:57;;;;;;;2.67;0.65;;;;;;;;;;7384432;19;20002;-80
2022/04/09 14:57:26;;;;;;;7.30;0.90;;;;;;;;;;7387299;19;20054;-80
2022/04/09 15:00:02;;;;;;;3.30;0.55;;;;;;;;;;7385710;19;20075;-81
2022/04/09 15:03:06;;;;;;;3.72;0.65;;;;;;;;;;7393975;19;20019;-81
2022/04/09 15:08:27;;;;;;;3.70;0.73;;;;;;;;;;7389869;19;20536;-81
2022/04/09 15:43:05;;;;;;;3.42;1.30;;;;;;;;;;7390889;19;20049;-84
2022/04/09 15:49:56;;;;;;;2.03;0.90;;;;;;;;;;7388383;19;20026;-80
2022/04/09 16:57:08;;;;;;;7.03;1.45;;;;;;;;;;7394952;19;20070;-81
2022/04/09 16:59:54;;;;;;;3.30;1.20;;;;;;;;;;7387855;19;20035;-80
2022/04/09 17:02:21;;;;;;;2.60;0.93;;;;;;;;;;7394809;19;20011;-81
2022/04/09 17:04:49;;;;;;;3.60;1.20;;;;;;;;;;7392693;19;20021;-81
2022/04/09 17:07:16;;;;;;;4.20;1.40;;;;;;;;;;7392992;19;20021;-82
2022/04/09 17:09:42;;;;;;;4.18;1.08;;;;;;;;;;7402854;19;20003;-80
2022/04/09 17:12:08;;;;;;;2.15;0.93;;;;;;;;;;7403475;19;20028;-83
2022/04/09 17:14:33;;;;;;;7.57;1.50;;;;;;;;;;7400867;19;20039;-83
2022/04/09 17:16:59;;;;;;;2.08;0.73;;;;;;;;;;7402189;19;20068;-81
2022/04/09 17:19:24;;;;;;;4.35;1.00;;;;;;;;;;7402835;19;20014;-80
2022/04/09 17:21:49;;;;;;;8.60;3.75;;;;;;;;;;7402520;19;20010;-82
2022/04/09 17:24:14;;;;;;;2.75;0.98;;;;;;;;;;7400418;19;20035;-82
2022/04/09 17:29:55;;;;;;;3.22;0.85;;;;;;;;;;7388582;19;20098;-81
2022/04/09 17:32:21;;;;;;;1.52;0.85;;;;;;;;;;7388529;19;20015;-80
2022/04/09 17:34:47;;;;;;;2.00;0.63;;;;;;;;;;7386716;19;20017;-81
2022/04/09 17:37:13;;;;;;;2.88;0.73;;;;;;;;;;7387856;19;20027;-80
2022/04/09 17:39:42;;;;;;;1.95;0.95;;;;;;;;;;7388648;19;20011;-79
2022/04/09 17:42:08;;;;;;;1.70;0.70;;;;;;;;;;7387132;19;19999;-78
2022/04/09 17:44:34;;;;;;;3.92;0.80;;;;;;;;;;7384873;19;20483;-79
2022/04/09 17:47:00;;;;;;;4.07;0.82;;;;;;;;;;7389198;19;20015;-80
2022/04/09 17:49:26;;;;;;;2.50;0.95;;;;;;;;;;7389810;19;20015;-79
2022/04/09 17:51:51;;;;;;;2.88;0.95;;;;;;;;;;7390776;19;20006;-79
2022/04/09 17:54:16;;;;;;;2.72;0.85;;;;;;;;;;7391066;19;20366;-79
2022/04/09 17:56:42;;;;;;;3.50;0.70;;;;;;;;;;7390423;19;20033;-80
2022/04/09 17:59:07;;;;;;;4.22;0.75;;;;;;;;;;7386439;19;20020;-81
2022/04/09 18:01:32;;;;;;;4.60;1.00;;;;;;;;;;7388198;19;20018;-80
2022/04/09 18:03:58;;;;;;;1.83;1.02;;;;;;;;;;7380326;19;20386;-79
2022/04/09 18:06:24;;;;;;;3.90;0.88;;;;;;;;;;7389158;19;20014;-79
2022/04/09 18:08:49;;;;;;;2.67;0.85;;;;;;;;;;7389559;19;20007;-81
2022/04/09 18:11:14;;;;;;;5.35;1.92;;;;;;;;;;7390420;19;20014;-79
2022/04/09 18:13:39;;;;;;;242.98;94.22;;;;;;;;;;7385746;19;20387;-80
2022/04/09 18:16:05;;;;;;;29.70;14.38;;;;;;;;;;7388695;19;20018;-81
2022/04/09 18:18:31;;;;;;;8.98;4.25;;;;;;;;;;7387103;19;20508;-81
2022/04/09 18:20:56;;;;;;;8.85;2.53;;;;;;;;;;7386852;19;20348;-81
2022/04/09 18:23:21;;;;;;;4.20;1.70;;;;;;;;;;7386806;19;20033;-80
2022/04/09 18:25:47;;;;;;;1.60;1.10;;;;;;;;;;7387728;19;20018;-81
2022/04/09 18:28:13;;;;;;;1.42;1.02;;;;;;;;;;7388551;19;20038;-81
2022/04/09 18:30:38;;;;;;;2.78;0.90;;;;;;;;;;7388629;19;20011;-81
2022/04/09 18:33:04;;;;;;;3.10;1.13;;;;;;;;;;7388961;19;20006;-80
2022/04/09 19:11:45;;;;;;;;;;;;;;;;;;;;;
2022/04/09 19:14:12;;;;;;;2.60;1.20;;;;;;;;;;7397682;19;20058;-82
2022/04/09 19:16:37;;;;;;;1.23;0.80;;;;;;;;;;7399493;19;20023;-81
2022/04/09 19:19:36;;;;;;;3.20;1.10;;;;;;;;;;7398988;19;20006;-81
2022/04/09 19:22:04;;;;;;;7.95;1.58;;;;;;;;;;7395293;19;20018;-81
2022/04/09 19:24:29;;;;;;;3.13;1.05;;;;;;;;;;7394438;19;20016;-81
2022/04/09 19:26:55;;;;;;;5.10;1.30;;;;;;;;;;7392360;19;20453;-81
2022/04/09 19:29:20;;;;;;;2.22;1.48;;;;;;;;;;7392361;19;20074;-80
2022/04/09 19:31:45;;;;;;;4.50;1.25;;;;;;;;;;7394498;19;19999;-80
2022/04/09 19:34:11;;;;;;;4.35;1.13;;;;;;;;;;7393121;19;20023;-80
2022/04/09 19:36:37;;;;;;;4.13;1.20;;;;;;;;;;7393896;19;20092;-80
2022/04/09 19:39:04;;;;;;;2.25;1.00;;;;;;;;;;7392430;19;20022;-82
2022/04/09 19:41:29;;;;;;;4.05;1.10;;;;;;;;;;7394591;19;20011;-81
2022/04/09 19:43:58;;;;;;;1.90;0.73;;;;;;;;;;7394710;19;20014;-80
2022/04/09 19:46:24;;;;;;;6.05;1.00;;;;;;;;;;7393586;19;20460;-82
2022/04/09 19:48:52;;;;;;;3.35;1.40;;;;;;;;;;7394569;19;20182;-80
2022/04/09 19:51:17;;;;;;;2.08;0.85;;;;;;;;;;7396382;19;20014;-80
2022/04/09 19:53:42;;;;;;;5.22;1.55;;;;;;;;;;7398971;19;20011;-79
2022/04/09 19:56:08;;;;;;;3.30;1.45;;;;;;;;;;7404437;19;20010;-85
2022/04/09 19:58:33;;;;;;;5.93;1.58;;;;;;;;;;7401207;19;20031;-81
2022/04/09 20:01:01;;;;;;;9.75;3.92;;;;;;;;;;7401226;19;20002;-79
2022/04/09 20:03:27;;;;;;;5.07;2.58;;;;;;;;;;7403160;19;20018;-80
2022/04/09 20:05:52;;;;;;;7.25;2.75;;;;;;;;;;7397774;19;20007;-80
2022/04/09 20:08:18;;;;;;;14.82;4.18;;;;;;;;;;7393734;19;20457;-79
2022/04/09 20:10:44;;;;;;;9.65;3.05;;;;;;;;;;7399895;19;20010;-79
2022/04/09 20:13:12;;;;;;;3.42;1.63;;;;;;;;;;7391277;19;19999;-80
2022/04/09 20:15:37;;;;;;;5.05;1.33;;;;;;;;;;7394201;19;20018;-80
2022/04/09 20:18:03;;;;;;;3.03;1.30;;;;;;;;;;7399939;19;20033;-81
2022/04/09 20:20:29;;;;;;;8.10;2.38;;;;;;;;;;7399480;19;20086;-80
2022/04/09 20:22:54;;;;;;;6.20;2.45;;;;;;;;;;7402117;19;20341;-80
2022/04/09 20:25:20;;;;;;;9.75;3.25;;;;;;;;;;7396829;19;20023;-80
2022/04/09 20:27:45;;;;;;;5.93;2.17;;;;;;;;;;7397433;19;20462;-82
2022/04/09 20:30:11;;;;;;;7.10;2.00;;;;;;;;;;7393616;19;20010;-81
2022/04/09 20:32:36;;;;;;;2.10;1.25;;;;;;;;;;7397307;19;20002;-80
2022/04/09 20:35:01;;;;;;;5.32;1.75;;;;;;;;;;7397607;19;20042;-81
2022/04/09 20:37:27;;;;;;;3.63;1.50;;;;;;;;;;7398290;19;20312;-81
2022/04/09 20:39:52;;;;;;;2.00;1.17;;;;;;;;;;7391391;19;20020;-82
2022/04/09 20:42:18;;;;;;;5.60;1.48;;;;;;;;;;7396744;19;20238;-82
2022/04/09 20:44:43;;;;;;;2.33;1.15;;;;;;;;;;7398565;19;20106;-84
2022/04/09 20:47:08;;;;;;;4.18;1.73;;;;;;;;;;7399622;19;20003;-83
2022/04/09 20:49:34;;;;;;;11.68;2.60;;;;;;;;;;7395808;19;20019;-81
2022/04/09 20:51:59;;;;;;;12.38;3.25;;;;;;;;;;7405311;19;20007;-81
2022/04/09 20:54:26;;;;;;;7.55;2.35;;;;;;;;;;7416452;19;20046;-79
2022/04/09 20:56:52;;;;;;;15.13;4.00;;;;;;;;;;7401495;19;20098;-80
2022/04/09 20:59:22;;;;;;;8.98;3.10;;;;;;;;;;7394244;19;20006;-81
2022/04/09 21:01:48;;;;;;;4.43;1.85;;;;;;;;;;7393780;19;20070;-81
2022/04/09 21:04:15;;;;;;;3.55;1.70;;;;;;;;;;7394031;19;20016;-80
2022/04/09 21:06:40;;;;;;;14.75;4.30;;;;;;;;;;7393645;19;20001;-81
2022/04/09 21:09:06;;;;;;;4.88;1.73;;;;;;;;;;7394709;19;20066;-80
2022/04/09 21:11:31;;;;;;;5.47;1.98;;;;;;;;;;7394381;19;20541;-81
2022/04/09 21:13:56;;;;;;;9.32;3.13;;;;;;;;;;7395032;19;20036;-81
2022/04/09 21:16:22;;;;;;;6.05;1.40;;;;;;;;;;7394729;19;20006;-81
2022/04/09 21:18:47;;;;;;;3.40;1.50;;;;;;;;;;7389378;19;20012;-80
2022/04/09 21:21:13;;;;;;;9.18;2.35;;;;;;;;;;7391619;19;20014;-83
2022/04/09 21:23:38;;;;;;;3.97;1.23;;;;;;;;;;7396365;19;20507;-80
2022/04/09 21:26:03;;;;;;;3.22;1.65;;;;;;;;;;7392585;19;20002;-82
2022/04/09 21:28:29;;;;;;;3.58;1.60;;;;;;;;;;7402770;19;20014;-82
2022/04/09 21:30:54;;;;;;;7.43;2.75;;;;;;;;;;7402597;19;20006;-80
2022/04/09 21:33:19;;;;;;;4.28;1.73;;;;;;;;;;7401839;19;20014;-80
2022/04/09 21:35:44;;;;;;;5.70;1.63;;;;;;;;;;7402698;19;20003;-80
2022/04/09 21:38:10;;;;;;;5.50;1.45;;;;;;;;;;7403655;19;20017;-79
2022/04/09 21:40:35;;;;;;;4.53;1.38;;;;;;;;;;7402524;19;20094;-78
2022/04/09 21:43:00;;;;;;;2.45;1.00;;;;;;;;;;7397050;19;20014;-79
2022/04/09 21:45:26;;;;;;;2.63;0.73;;;;;;;;;;7392477;19;20013;-80
2022/04/09 21:47:51;;;;;;;1.88;0.88;;;;;;;;;;7393204;19;19995;-80
2022/04/09 21:50:16;;;;;;;2.33;0.70;;;;;;;;;;7394002;19;20449;-82
2022/04/09 21:52:41;;;;;;;2.97;0.57;;;;;;;;;;7394543;19;20035;-82
2022/04/09 21:55:07;;;;;;;1.17;0.63;;;;;;;;;;7394394;19;19999;-80
2022/04/09 21:57:33;;;;;;;2.53;0.70;;;;;;;;;;7395729;19;20011;-81
2022/04/09 21:59:59;;;;;;;2.28;0.73;;;;;;;;;;7394042;19;20011;-80
2022/04/09 22:02:24;;;;;;;1.70;0.80;;;;;;;;;;7391891;19;20062;-80
2022/04/09 22:04:50;;;;;;;1.45;0.70;;;;;;;;;;7391308;19;19998;-80
2022/04/09 22:07:16;;;;;;;1.17;0.68;;;;;;;;;;7394293;19;20014;-80
2022/04/09 22:09:41;;;;;;;2.47;1.00;;;;;;;;;;7392671;19;20005;-79
2022/04/09 22:12:07;;;;;;;2.35;0.80;;;;;;;;;;7395167;19;20011;-79
2022/04/09 22:14:32;;;;;;;2.35;0.80;;;;;;;;;;7404660;19;20118;-79
2022/04/09 22:16:57;;;;;;;2.05;0.70;;;;;;;;;;7394765;19;20002;-79
2022/04/09 22:19:23;;;;;;;1.33;0.80;;;;;;;;;;7390522;19;20006;-78
2022/04/09 22:21:48;;;;;;;3.00;0.95;;;;;;;;;;7389018;19;20010;-78
2022/04/09 22:24:13;;;;;;;3.15;0.77;;;;;;;;;;7391169;19;20330;-79
2022/04/09 22:26:38;;;;;;;2.40;0.88;;;;;;;;;;7393304;19;19995;-80
2022/04/09 22:29:04;;;;;;;1.60;0.75;;;;;;;;;;7393253;19;20411;-79
2022/04/09 22:31:29;;;;;;;1.02;0.50;;;;;;;;;;7388134;19;20005;-79
2022/04/09 22:33:55;;;;;;;3.15;0.85;;;;;;;;;;7394217;19;20002;-79
2022/04/09 22:36:20;;;;;;;2.20;0.90;;;;;;;;;;7392201;19;20002;-80
2022/04/09 22:38:45;;;;;;;3.03;0.73;;;;;;;;;;7387351;19;20007;-80
2022/04/09 22:41:11;;;;;;;3.00;1.33;;;;;;;;;;7395187;19;20018;-80
2022/04/09 22:43:36;;;;;;;2.67;0.90;;;;;;;;;;7391690;19;20117;-79
2022/04/09 22:46:01;;;;;;;2.53;1.17;;;;;;;;;;7388820;19;20438;-79
2022/04/09 22:48:27;;;;;;;4.45;0.90;;;;;;;;;;7388442;19;19995;-80
2022/04/09 22:50:52;;;;;;;4.97;0.95;;;;;;;;;;7393158;19;20391;-80
2022/04/09 22:53:17;;;;;;;2.40;1.05;;;;;;;;;;7393359;19;19999;-79
2022/04/09 22:55:44;;;;;;;4.95;1.48;;;;;;;;;;7392094;19;19999;-79
2022/04/09 22:58:10;;;;;;;3.78;1.48;;;;;;;;;;7389505;19;20006;-79
2022/04/09 23:00:35;;;;;;;4.88;1.40;;;;;;;;;;7392913;19;20354;-79
2022/04/09 23:03:00;;;;;;;3.60;1.50;;;;;;;;;;7392540;19;20074;-79
2022/04/09 23:05:26;;;;;;;1.45;0.80;;;;;;;;;;7388072;19;20010;-79
2022/04/09 23:07:51;;;;;;;3.08;1.42;;;;;;;;;;7390456;19;20660;-79
2022/04/09 23:10:16;;;;;;;2.33;0.90;;;;;;;;;;7389695;19;20018;-79
2022/04/09 23:12:46;;;;;;;3.55;1.20;;;;;;;;;;7391149;19;19991;-79
2022/04/09 23:15:12;;;;;;;3.45;1.08;;;;;;;;;;7390093;19;20090;-79
2022/04/09 23:17:37;;;;;;;4.05;0.90;;;;;;;;;;7392839;19;20565;-80
2022/04/09 23:20:04;;;;;;;1.27;1.00;;;;;;;;;;7391498;19;20010;-79
2022/04/09 23:22:30;;;;;;;5.40;0.93;;;;;;;;;;7391936;19;20356;-79
2022/04/09 23:24:55;;;;;;;3.40;1.30;;;;;;;;;;7387340;19;20058;-79
2022/04/09 23:27:20;;;;;;;3.17;1.02;;;;;;;;;;7392535;19;20482;-79